Aviation Digital Data Service (ADDS)

Output produced by METARs form (2108 UTC 24 May 2015)
found at http://aviationweather.gov/adds/metars/
 
KBAF 241740Z 2418/2518 20006KT P6SM SKC 
     FM250900 VRB03KT P6SM BKN090